PWSweather.com
Personal Weather Stations
Station Observations
KFLSEBAS1
Sebastian Highlands, Sebastian, FL 32958-4362

Sebastian HighlandsSebastian, FL 32958-4362

Lat: 27.8, Lon: -80.48

Elevation: 23

Station Type: Davis Weather Monitor II

Latest ConditionsUpdated 2:55:19 PM EST Sunday, Nov 17, 2019
Currently Today's Max Today's Min Today's Average
Temperature 59.5°F15.3°C 61.9°F16.6°C 53.7°F12.1°C 56.7°F13.7°C
Dew Point 55.6°F13.1°C 57.2°F14.0°C 51.7°F10.9°C 53.7°F12.1°C
Winds 3.0 mph NW4.8 kmh NW 11.0 mph -17.7 kmh - - 4.2 mph 6.8 kmh
Wind Gusts 12.0 mph19.3 kmh 13.0 mph20.9 kmh - -
Humidity 87% 94% 84% 90%
Pressure 29.88 in1011.9 mb 29.95 in1014.2 mb 29.87 in1011.5 mb -
Hour Temp Dew Point Humidity Winds Wind Gusts Pressure Precip Precip Rate Daily Precip Total
02:55 PM 59.5°F15.3°C 55.6°F13.1°C 87% 3.0 mph NW4.8 kmh NW 12.0 mph19.3 kmh 29.88 in1011.9 mb 0.00 in0.0 mm 0.00 in0.0 mm 0.00 in0.0 mm
02:50 PM 59.6°F15.3°C 55.7°F13.2°C 87% 4.0 mph NW6.4 kmh NW 12.0 mph19.3 kmh 29.87 in1011.5 mb 0.00 in0.0 mm 0.00 in0.0 mm 0.00 in0.0 mm
02:45 PM 59.7°F15.4°C 55.8°F13.2°C 87% Calm Calm 12.0 mph19.3 kmh 29.88 in1011.9 mb 0.00 in0.0 mm 0.00 in0.0 mm 0.00 in0.0 mm
02:40 PM 59.9°F15.5°C 56.0°F13.3°C 87% 3.0 mph NNW4.8 kmh NNW 12.0 mph19.3 kmh 29.88 in1011.9 mb 0.00 in0.0 mm 0.00 in0.0 mm 0.00 in0.0 mm
02:35 PM 59.9°F15.5°C 56.0°F13.3°C 87% 4.0 mph NW6.4 kmh NW 12.0 mph19.3 kmh 29.89 in1012.2 mb 0.00 in0.0 mm 0.00 in0.0 mm 0.00 in0.0 mm
02:30 PM 59.9°F15.5°C 56.0°F13.3°C 87% Calm Calm 12.0 mph19.3 kmh 29.88 in1011.9 mb 0.00 in0.0 mm 0.00 in0.0 mm 0.00 in0.0 mm
02:25 PM 60.1°F15.6°C 55.6°F13.1°C 85% Calm Calm 12.0 mph19.3 kmh 29.88 in1011.9 mb 0.00 in0.0 mm 0.00 in0.0 mm 0.00 in0.0 mm
02:20 PM 60.5°F15.8°C 56.3°F13.5°C 86% 6.0 mph NW9.7 kmh NW 12.0 mph19.3 kmh 29.88 in1011.9 mb 0.00 in0.0 mm 0.00 in0.0 mm 0.00 in0.0 mm
02:15 PM 60.4°F15.8°C 56.2°F13.4°C 86% 7.0 mph NW11.3 kmh NW 12.0 mph19.3 kmh 29.88 in1011.9 mb 0.00 in0.0 mm 0.00 in0.0 mm 0.00 in0.0 mm
02:10 PM 60.5°F15.8°C 56.0°F13.3°C 85% 6.0 mph WNW9.7 kmh WNW 8.0 mph12.9 kmh 29.88 in1011.9 mb 0.00 in0.0 mm 0.00 in0.0 mm 0.00 in0.0 mm
02:05 PM 60.9°F16.1°C 56.0°F13.3°C 84% Calm Calm 8.0 mph12.9 kmh 29.88 in1011.9 mb 0.00 in0.0 mm 0.00 in0.0 mm 0.00 in0.0 mm
02:00 PM 61.1°F16.2°C 56.2°F13.4°C 84% 6.0 mph WNW9.7 kmh WNW 7.0 mph11.3 kmh 29.88 in1011.9 mb 0.00 in0.0 mm 0.00 in0.0 mm 0.00 in0.0 mm
01:55 PM 61.3°F16.3°C 56.8°F13.8°C 85% 5.0 mph NW8.0 kmh NW 11.0 mph17.7 kmh 29.89 in1012.2 mb 0.00 in0.0 mm 0.00 in0.0 mm 0.00 in0.0 mm
01:50 PM 61.3°F16.3°C 56.4°F13.6°C 84% 5.0 mph NW8.0 kmh NW 11.0 mph17.7 kmh 29.89 in1012.2 mb 0.00 in0.0 mm 0.00 in0.0 mm 0.00 in0.0 mm
01:45 PM 61.6°F16.4°C 56.7°F13.7°C 84% 8.0 mph NW12.9 kmh NW 11.0 mph17.7 kmh 29.88 in1011.9 mb 0.00 in0.0 mm 0.00 in0.0 mm 0.00 in0.0 mm
01:40 PM 61.7°F16.5°C 56.8°F13.8°C 84% 2.0 mph NW3.2 kmh NW 11.0 mph17.7 kmh 29.89 in1012.2 mb 0.00 in0.0 mm 0.00 in0.0 mm 0.00 in0.0 mm
01:35 PM 61.7°F16.5°C 56.8°F13.8°C 84% 8.0 mph NW12.9 kmh NW 11.0 mph17.7 kmh 29.89 in1012.2 mb 0.00 in0.0 mm 0.00 in0.0 mm 0.00 in0.0 mm
01:30 PM 61.8°F16.6°C 56.9°F13.8°C 84% 4.0 mph N6.4 kmh N 11.0 mph17.7 kmh 29.89 in1012.2 mb 0.00 in0.0 mm 0.00 in0.0 mm 0.00 in0.0 mm
01:25 PM 61.7°F16.5°C 56.8°F13.8°C 84% 3.0 mph NNW4.8 kmh NNW 11.0 mph17.7 kmh 29.88 in1011.9 mb 0.00 in0.0 mm 0.00 in0.0 mm 0.00 in0.0 mm
01:20 PM 61.8°F16.6°C 56.9°F13.8°C 84% 8.0 mph NW12.9 kmh NW 11.0 mph17.7 kmh 29.89 in1012.2 mb 0.00 in0.0 mm 0.00 in0.0 mm 0.00 in0.0 mm
01:15 PM 61.7°F16.5°C 56.8°F13.8°C 84% Calm Calm 11.0 mph17.7 kmh 29.89 in1012.2 mb 0.00 in0.0 mm 0.00 in0.0 mm 0.00 in0.0 mm
01:10 PM 61.8°F16.6°C 56.9°F13.8°C 84% 2.0 mph WNW3.2 kmh WNW 11.0 mph17.7 kmh 29.89 in1012.2 mb 0.00 in0.0 mm 0.00 in0.0 mm 0.00 in0.0 mm
01:05 PM 61.8°F16.6°C 56.9°F13.8°C 84% 8.0 mph NW12.9 kmh NW 11.0 mph17.7 kmh 29.89 in1012.2 mb 0.00 in0.0 mm 0.00 in0.0 mm 0.00 in0.0 mm
01:00 PM 61.7°F16.5°C 56.8°F13.8°C 84% 4.0 mph NW6.4 kmh NW 4.0 mph6.4 kmh 29.89 in1012.2 mb 0.00 in0.0 mm 0.00 in0.0 mm 0.00 in0.0 mm
12:55 PM 61.9°F16.6°C 57.0°F13.9°C 84% Calm Calm 13.0 mph20.9 kmh 29.89 in1012.2 mb 0.00 in0.0 mm 0.00 in0.0 mm 0.00 in0.0 mm
12:50 PM 61.9°F16.6°C 57.0°F13.9°C 84% 6.0 mph NW9.7 kmh NW 13.0 mph20.9 kmh 29.88 in1011.9 mb 0.00 in0.0 mm 0.00 in0.0 mm 0.00 in0.0 mm
12:45 PM 61.8°F16.6°C 56.9°F13.8°C 84% 10.0 mph NW16.1 kmh NW 13.0 mph20.9 kmh 29.89 in1012.2 mb 0.00 in0.0 mm 0.00 in0.0 mm 0.00 in0.0 mm
12:40 PM 61.8°F16.6°C 56.9°F13.8°C 84% 8.0 mph NW12.9 kmh NW 12.0 mph19.3 kmh 29.89 in1012.2 mb 0.00 in0.0 mm 0.00 in0.0 mm 0.00 in0.0 mm
12:35 PM 61.7°F16.5°C 57.2°F14.0°C 85% 7.0 mph NNW11.3 kmh NNW 12.0 mph19.3 kmh 29.89 in1012.2 mb 0.00 in0.0 mm 0.00 in0.0 mm 0.00 in0.0 mm
12:30 PM 61.5°F16.4°C 57.0°F13.9°C 85% 5.0 mph NW8.0 kmh NW 12.0 mph19.3 kmh 29.90 in1012.5 mb 0.00 in0.0 mm 0.00 in0.0 mm 0.00 in0.0 mm
12:25 PM 61.4°F16.3°C 56.9°F13.8°C 85% 4.0 mph NNW6.4 kmh NNW 11.0 mph17.7 kmh 29.90 in1012.5 mb 0.00 in0.0 mm 0.00 in0.0 mm 0.00 in0.0 mm
12:20 PM 61.3°F16.3°C 56.8°F13.8°C 85% 5.0 mph NW8.0 kmh NW 11.0 mph17.7 kmh 29.90 in1012.5 mb 0.00 in0.0 mm 0.00 in0.0 mm 0.00 in0.0 mm
12:15 PM 61.1°F16.2°C 56.2°F13.4°C 84% Calm Calm 11.0 mph17.7 kmh 29.91 in1012.9 mb 0.00 in0.0 mm 0.00 in0.0 mm 0.00 in0.0 mm
12:10 PM 61.3°F16.3°C 56.4°F13.6°C 84% Calm Calm 11.0 mph17.7 kmh 29.91 in1012.9 mb 0.00 in0.0 mm 0.00 in0.0 mm 0.00 in0.0 mm
12:05 PM 61.3°F16.3°C 56.4°F13.6°C 84% 7.0 mph NW11.3 kmh NW 9.0 mph14.5 kmh 29.91 in1012.9 mb 0.00 in0.0 mm 0.00 in0.0 mm 0.00 in0.0 mm
12:00 PM 61.3°F16.3°C 56.8°F13.8°C 85% 4.0 mph NW6.4 kmh NW 6.0 mph9.7 kmh 29.91 in1012.9 mb 0.00 in0.0 mm 0.00 in0.0 mm 0.00 in0.0 mm
11:55 AM 61.1°F16.2°C 56.6°F13.7°C 85% Calm Calm 13.0 mph20.9 kmh 29.91 in1012.9 mb 0.00 in0.0 mm 0.00 in0.0 mm 0.00 in0.0 mm
11:50 AM 61.0°F16.1°C 56.5°F13.6°C 85% Calm Calm 13.0 mph20.9 kmh 29.91 in1012.9 mb 0.00 in0.0 mm 0.00 in0.0 mm 0.00 in0.0 mm
11:45 AM 61.1°F16.2°C 56.6°F13.7°C 85% 7.0 mph NW11.3 kmh NW 10.0 mph16.1 kmh 29.92 in1013.2 mb 0.00 in0.0 mm 0.00 in0.0 mm 0.00 in0.0 mm
11:40 AM 61.0°F16.1°C 56.5°F13.6°C 85% 5.0 mph NW8.0 kmh NW 10.0 mph16.1 kmh 29.92 in1013.2 mb 0.00 in0.0 mm 0.00 in0.0 mm 0.00 in0.0 mm
11:35 AM 61.0°F16.1°C 56.5°F13.6°C 85% 1.0 mph WNW1.6 kmh WNW 10.0 mph16.1 kmh 29.92 in1013.2 mb 0.00 in0.0 mm 0.00 in0.0 mm 0.00 in0.0 mm
11:30 AM 60.9°F16.1°C 56.4°F13.6°C 85% 4.0 mph NW6.4 kmh NW 10.0 mph16.1 kmh 29.92 in1013.2 mb 0.00 in0.0 mm 0.00 in0.0 mm 0.00 in0.0 mm
11:25 AM 60.8°F16.0°C 56.3°F13.5°C 85% 8.0 mph NW12.9 kmh NW 10.0 mph16.1 kmh 29.92 in1013.2 mb 0.00 in0.0 mm 0.00 in0.0 mm 0.00 in0.0 mm
11:20 AM 60.8°F16.0°C 56.6°F13.7°C 86% 7.0 mph NW11.3 kmh NW 10.0 mph16.1 kmh 29.92 in1013.2 mb 0.00 in0.0 mm 0.00 in0.0 mm 0.00 in0.0 mm
11:15 AM 60.8°F16.0°C 56.6°F13.7°C 86% 4.0 mph WNW6.4 kmh WNW 8.0 mph12.9 kmh 29.92 in1013.2 mb 0.00 in0.0 mm 0.00 in0.0 mm 0.00 in0.0 mm
11:10 AM 60.8°F16.0°C 56.6°F13.7°C 86% 4.0 mph W6.4 kmh W 8.0 mph12.9 kmh 29.92 in1013.2 mb 0.00 in0.0 mm 0.00 in0.0 mm 0.00 in0.0 mm
11:05 AM 60.6°F15.9°C 56.7°F13.7°C 87% 5.0 mph W8.0 kmh W 6.0 mph9.7 kmh 29.92 in1013.2 mb 0.00 in0.0 mm 0.00 in0.0 mm 0.00 in0.0 mm
11:00 AM 60.3°F15.7°C 56.4°F13.6°C 87% 3.0 mph NW4.8 kmh NW 5.0 mph8.0 kmh 29.93 in1013.5 mb 0.00 in0.0 mm 0.00 in0.0 mm 0.00 in0.0 mm
10:55 AM 60.1°F15.6°C 56.5°F13.6°C 88% 7.0 mph WNW11.3 kmh WNW 13.0 mph20.9 kmh 29.92 in1013.2 mb 0.00 in0.0 mm 0.00 in0.0 mm 0.00 in0.0 mm
10:50 AM 59.7°F15.4°C 56.2°F13.4°C 88% 10.0 mph NW16.1 kmh NW 13.0 mph20.9 kmh 29.92 in1013.2 mb 0.00 in0.0 mm 0.00 in0.0 mm 0.00 in0.0 mm
10:45 AM 59.3°F15.2°C 55.8°F13.2°C 88% Calm Calm 13.0 mph20.9 kmh 29.92 in1013.2 mb 0.00 in0.0 mm 0.00 in0.0 mm 0.00 in0.0 mm
10:40 AM 59.1°F15.1°C 55.6°F13.1°C 88% 5.0 mph NW8.0 kmh NW 13.0 mph20.9 kmh 29.93 in1013.5 mb 0.00 in0.0 mm 0.00 in0.0 mm 0.00 in0.0 mm
10:35 AM 58.8°F14.9°C 55.6°F13.1°C 89% 5.0 mph WNW8.0 kmh WNW 13.0 mph20.9 kmh 29.94 in1013.9 mb 0.00 in0.0 mm 0.00 in0.0 mm 0.00 in0.0 mm
10:30 AM 58.7°F14.8°C 55.5°F13.1°C 89% 5.0 mph NNW8.0 kmh NNW 13.0 mph20.9 kmh 29.94 in1013.9 mb 0.00 in0.0 mm 0.00 in0.0 mm 0.00 in0.0 mm
10:25 AM 58.3°F14.6°C 55.1°F12.8°C 89% 7.0 mph NW11.3 kmh NW 13.0 mph20.9 kmh 29.93 in1013.5 mb 0.00 in0.0 mm 0.00 in0.0 mm 0.00 in0.0 mm
10:20 AM 58.2°F14.6°C 55.3°F12.9°C 90% 11.0 mph NW17.7 kmh NW 13.0 mph20.9 kmh 29.94 in1013.9 mb 0.00 in0.0 mm 0.00 in0.0 mm 0.00 in0.0 mm
10:15 AM 58.0°F14.4°C 55.1°F12.8°C 90% 9.0 mph NW14.5 kmh NW 11.0 mph17.7 kmh 29.94 in1013.9 mb 0.00 in0.0 mm 0.00 in0.0 mm 0.00 in0.0 mm
10:10 AM 57.7°F14.3°C 54.8°F12.7°C 90% Calm Calm 11.0 mph17.7 kmh 29.94 in1013.9 mb 0.00 in0.0 mm 0.00 in0.0 mm 0.00 in0.0 mm
10:05 AM 57.4°F14.1°C 54.8°F12.7°C 91% 7.0 mph NW11.3 kmh NW 11.0 mph17.7 kmh 29.93 in1013.5 mb 0.00 in0.0 mm 0.00 in0.0 mm 0.00 in0.0 mm
10:00 AM 57.1°F13.9°C 54.5°F12.5°C 91% 4.0 mph WNW6.4 kmh WNW 5.0 mph8.0 kmh 29.94 in1013.9 mb 0.00 in0.0 mm 0.00 in0.0 mm 0.00 in0.0 mm
09:55 AM 56.9°F13.8°C 54.6°F12.6°C 92% 4.0 mph NW6.4 kmh NW 13.0 mph20.9 kmh 29.94 in1013.9 mb 0.00 in0.0 mm 0.00 in0.0 mm 0.00 in0.0 mm
09:50 AM 56.7°F13.7°C 54.7°F12.6°C 93% 4.0 mph NW6.4 kmh NW 13.0 mph20.9 kmh 29.94 in1013.9 mb 0.00 in0.0 mm 0.00 in0.0 mm 0.00 in0.0 mm
09:45 AM 56.6°F13.7°C 54.6°F12.6°C 93% 7.0 mph NW11.3 kmh NW 13.0 mph20.9 kmh 29.94 in1013.9 mb 0.00 in0.0 mm 0.00 in0.0 mm 0.00 in0.0 mm
09:40 AM 56.4°F13.6°C 54.4°F12.4°C 93% 3.0 mph NW4.8 kmh NW 13.0 mph20.9 kmh 29.94 in1013.9 mb 0.00 in0.0 mm 0.00 in0.0 mm 0.00 in0.0 mm
09:35 AM 56.0°F13.3°C 54.3°F12.4°C 94% 3.0 mph NW4.8 kmh NW 13.0 mph20.9 kmh 29.94 in1013.9 mb 0.00 in0.0 mm 0.00 in0.0 mm 0.00 in0.0 mm
09:30 AM 55.7°F13.2°C 53.7°F12.1°C 93% 6.0 mph NW9.7 kmh NW 13.0 mph20.9 kmh 29.94 in1013.9 mb 0.00 in0.0 mm 0.00 in0.0 mm 0.00 in0.0 mm
09:25 AM 55.5°F13.1°C 53.5°F11.9°C 93% 5.0 mph NW8.0 kmh NW 13.0 mph20.9 kmh 29.95 in1014.2 mb 0.00 in0.0 mm 0.00 in0.0 mm 0.00 in0.0 mm
09:20 AM 55.4°F13.0°C 53.7°F12.1°C 94% 7.0 mph NW11.3 kmh NW 13.0 mph20.9 kmh 29.95 in1014.2 mb 0.00 in0.0 mm 0.00 in0.0 mm 0.00 in0.0 mm
09:15 AM 55.3°F12.9°C 53.6°F12.0°C 94% 7.0 mph NW11.3 kmh NW 13.0 mph20.9 kmh 29.94 in1013.9 mb 0.00 in0.0 mm 0.00 in0.0 mm 0.00 in0.0 mm
09:10 AM 55.2°F12.9°C 53.2°F11.8°C 93% 6.0 mph WNW9.7 kmh WNW 11.0 mph17.7 kmh 29.95 in1014.2 mb 0.00 in0.0 mm 0.00 in0.0 mm 0.00 in0.0 mm
09:05 AM 55.0°F12.8°C 53.3°F11.8°C 94% 5.0 mph NW8.0 kmh NW 11.0 mph17.7 kmh 29.95 in1014.2 mb 0.00 in0.0 mm 0.00 in0.0 mm 0.00 in0.0 mm
09:00 AM 54.9°F12.7°C 53.2°F11.8°C 94% 9.0 mph W14.5 kmh W 9.0 mph14.5 kmh 29.94 in1013.9 mb 0.00 in0.0 mm 0.00 in0.0 mm 0.00 in0.0 mm
08:55 AM 54.8°F12.7°C 53.1°F11.7°C 94% 4.0 mph NW6.4 kmh NW 13.0 mph20.9 kmh 29.94 in1013.9 mb 0.00 in0.0 mm 0.00 in0.0 mm 0.00 in0.0 mm
08:50 AM 54.7°F12.6°C 53.0°F11.7°C 94% 6.0 mph NW9.7 kmh NW 13.0 mph20.9 kmh 29.94 in1013.9 mb 0.00 in0.0 mm 0.00 in0.0 mm 0.00 in0.0 mm
08:45 AM 54.7°F12.6°C 53.0°F11.7°C 94% 3.0 mph W4.8 kmh W 13.0 mph20.9 kmh 29.95 in1014.2 mb 0.00 in0.0 mm 0.00 in0.0 mm 0.00 in0.0 mm
08:40 AM 54.7°F12.6°C 53.0°F11.7°C 94% 6.0 mph NW9.7 kmh NW 11.0 mph17.7 kmh 29.94 in1013.9 mb 0.00 in0.0 mm 0.00 in0.0 mm 0.00 in0.0 mm
08:35 AM 54.6°F12.6°C 52.9°F11.6°C 94% 4.0 mph WNW6.4 kmh WNW 10.0 mph16.1 kmh 29.94 in1013.9 mb 0.00 in0.0 mm 0.00 in0.0 mm 0.00 in0.0 mm
08:30 AM 54.5°F12.5°C 52.8°F11.6°C 94% 4.0 mph NW6.4 kmh NW 10.0 mph16.1 kmh 29.93 in1013.5 mb 0.00 in0.0 mm 0.00 in0.0 mm 0.00 in0.0 mm
08:25 AM 54.4°F12.4°C 52.7°F11.5°C 94% 3.0 mph WSW4.8 kmh WSW 10.0 mph16.1 kmh 29.94 in1013.9 mb 0.00 in0.0 mm 0.00 in0.0 mm 0.00 in0.0 mm
08:20 AM 54.4°F12.4°C 52.7°F11.5°C 94% 5.0 mph WNW8.0 kmh WNW 10.0 mph16.1 kmh 29.93 in1013.5 mb 0.00 in0.0 mm 0.00 in0.0 mm 0.00 in0.0 mm
08:15 AM 54.3°F12.4°C 52.6°F11.4°C 94% 4.0 mph WNW6.4 kmh WNW 10.0 mph16.1 kmh 29.93 in1013.5 mb 0.00 in0.0 mm 0.00 in0.0 mm 0.00 in0.0 mm
08:10 AM 54.3°F12.4°C 52.6°F11.4°C 94% 5.0 mph WNW8.0 kmh WNW 9.0 mph14.5 kmh 29.93 in1013.5 mb 0.00 in0.0 mm 0.00 in0.0 mm 0.00 in0.0 mm
08:05 AM 54.3°F12.4°C 52.6°F11.4°C 94% 3.0 mph WNW4.8 kmh WNW 7.0 mph11.3 kmh 29.93 in1013.5 mb 0.00 in0.0 mm 0.00 in0.0 mm 0.00 in0.0 mm
08:00 AM 54.2°F12.3°C 52.5°F11.4°C 94% 4.0 mph WNW6.4 kmh WNW 5.0 mph8.0 kmh 29.93 in1013.5 mb 0.00 in0.0 mm 0.00 in0.0 mm 0.00 in0.0 mm
07:55 AM 54.2°F12.3°C 52.5°F11.4°C 94% 6.0 mph WNW9.7 kmh WNW 11.0 mph17.7 kmh 29.93 in1013.5 mb 0.00 in0.0 mm 0.00 in0.0 mm 0.00 in0.0 mm
07:50 AM 54.2°F12.3°C 52.5°F11.4°C 94% 2.0 mph NW3.2 kmh NW 11.0 mph17.7 kmh 29.93 in1013.5 mb 0.00 in0.0 mm 0.00 in0.0 mm 0.00 in0.0 mm
07:45 AM 54.1°F12.3°C 52.4°F11.3°C 94% 5.0 mph WNW8.0 kmh WNW 11.0 mph17.7 kmh 29.92 in1013.2 mb 0.00 in0.0 mm 0.00 in0.0 mm 0.00 in0.0 mm
07:40 AM 54.0°F12.2°C 52.3°F11.3°C 94% Calm Calm 11.0 mph17.7 kmh 29.92 in1013.2 mb 0.00 in0.0 mm 0.00 in0.0 mm 0.00 in0.0 mm
07:35 AM 53.9°F12.2°C 52.2°F11.2°C 94% 6.0 mph NW9.7 kmh NW 11.0 mph17.7 kmh 29.93 in1013.5 mb 0.00 in0.0 mm 0.00 in0.0 mm 0.00 in0.0 mm
07:30 AM 53.8°F12.1°C 52.1°F11.2°C 94% 6.0 mph NW9.7 kmh NW 11.0 mph17.7 kmh 29.93 in1013.5 mb 0.00 in0.0 mm 0.00 in0.0 mm 0.00 in0.0 mm
07:25 AM 53.8°F12.1°C 52.1°F11.2°C 94% 1.0 mph NW1.6 kmh NW 11.0 mph17.7 kmh 29.92 in1013.2 mb 0.00 in0.0 mm 0.00 in0.0 mm 0.00 in0.0 mm
07:20 AM 53.7°F12.1°C 52.0°F11.1°C 94% 4.0 mph WNW6.4 kmh WNW 10.0 mph16.1 kmh 29.92 in1013.2 mb 0.00 in0.0 mm 0.00 in0.0 mm 0.00 in0.0 mm
07:15 AM 53.8°F12.1°C 51.8°F11.0°C 93% 5.0 mph W8.0 kmh W 10.0 mph16.1 kmh 29.92 in1013.2 mb 0.00 in0.0 mm 0.00 in0.0 mm 0.00 in0.0 mm
07:10 AM 53.7°F12.1°C 51.7°F10.9°C 93% 3.0 mph WNW4.8 kmh WNW 10.0 mph16.1 kmh 29.92 in1013.2 mb 0.00 in0.0 mm 0.00 in0.0 mm 0.00 in0.0 mm
07:05 AM 53.7°F12.1°C 51.7°F10.9°C 93% 4.0 mph NW6.4 kmh NW 9.0 mph14.5 kmh 29.92 in1013.2 mb 0.00 in0.0 mm 0.00 in0.0 mm 0.00 in0.0 mm
07:00 AM 53.8°F12.1°C 51.8°F11.0°C 93% 7.0 mph NW11.3 kmh NW 7.0 mph11.3 kmh 29.91 in1012.9 mb 0.00 in0.0 mm 0.00 in0.0 mm 0.00 in0.0 mm
06:55 AM 53.8°F12.1°C 51.8°F11.0°C 93% 7.0 mph NW11.3 kmh NW 13.0 mph20.9 kmh 29.91 in1012.9 mb 0.00 in0.0 mm 0.00 in0.0 mm 0.00 in0.0 mm
06:50 AM 53.9°F12.2°C 51.9°F11.1°C 93% 6.0 mph NW9.7 kmh NW 13.0 mph20.9 kmh 29.91 in1012.9 mb 0.00 in0.0 mm 0.00 in0.0 mm 0.00 in0.0 mm
06:45 AM 54.0°F12.2°C 52.3°F11.3°C 94% 3.0 mph NW4.8 kmh NW 13.0 mph20.9 kmh 29.92 in1013.2 mb 0.00 in0.0 mm 0.00 in0.0 mm 0.00 in0.0 mm
06:40 AM 53.9°F12.2°C 51.9°F11.1°C 93% 5.0 mph NW8.0 kmh NW 13.0 mph20.9 kmh 29.92 in1013.2 mb 0.00 in0.0 mm 0.00 in0.0 mm 0.00 in0.0 mm
06:35 AM 53.8°F12.1°C 51.8°F11.0°C 93% 5.0 mph NW8.0 kmh NW 13.0 mph20.9 kmh 29.92 in1013.2 mb 0.00 in0.0 mm 0.00 in0.0 mm 0.00 in0.0 mm
06:30 AM 53.8°F12.1°C 51.8°F11.0°C 93% 6.0 mph WNW9.7 kmh WNW 13.0 mph20.9 kmh 29.91 in1012.9 mb 0.00 in0.0 mm 0.00 in0.0 mm 0.00 in0.0 mm
06:25 AM 53.8°F12.1°C 51.8°F11.0°C 93% 5.0 mph WNW8.0 kmh WNW 13.0 mph20.9 kmh 29.91 in1012.9 mb 0.00 in0.0 mm 0.00 in0.0 mm 0.00 in0.0 mm
06:20 AM 53.8°F12.1°C 51.8°F11.0°C 93% 7.0 mph NW11.3 kmh NW 13.0 mph20.9 kmh 29.90 in1012.5 mb 0.00 in0.0 mm 0.00 in0.0 mm 0.00 in0.0 mm
06:15 AM 53.9°F12.2°C 51.9°F11.1°C 93% 4.0 mph NW6.4 kmh NW 10.0 mph16.1 kmh 29.90 in1012.5 mb 0.00 in0.0 mm 0.00 in0.0 mm 0.00 in0.0 mm
06:10 AM 53.9°F12.2°C 51.9°F11.1°C 93% 5.0 mph WNW8.0 kmh WNW 10.0 mph16.1 kmh 29.90 in1012.5 mb 0.00 in0.0 mm 0.00 in0.0 mm 0.00 in0.0 mm
06:05 AM 53.9°F12.2°C 51.9°F11.1°C 93% 4.0 mph W6.4 kmh W 10.0 mph16.1 kmh 29.90 in1012.5 mb 0.00 in0.0 mm 0.00 in0.0 mm 0.00 in0.0 mm
06:00 AM 53.9°F12.2°C 51.9°F11.1°C 93% 4.0 mph NW6.4 kmh NW 7.0 mph11.3 kmh 29.90 in1012.5 mb 0.00 in0.0 mm 0.00 in0.0 mm 0.00 in0.0 mm
05:55 AM 54.0°F12.2°C 51.7°F10.9°C 92% 4.0 mph NW6.4 kmh NW 11.0 mph17.7 kmh 29.90 in1012.5 mb 0.00 in0.0 mm 0.00 in0.0 mm 0.00 in0.0 mm
05:50 AM 54.0°F12.2°C 51.7°F10.9°C 92% 2.0 mph NW3.2 kmh NW 11.0 mph17.7 kmh 29.90 in1012.5 mb 0.00 in0.0 mm 0.00 in0.0 mm 0.00 in0.0 mm
05:45 AM 54.1°F12.3°C 52.1°F11.2°C 93% 7.0 mph NW11.3 kmh NW 11.0 mph17.7 kmh 29.90 in1012.5 mb 0.00 in0.0 mm 0.00 in0.0 mm 0.00 in0.0 mm
05:40 AM 54.2°F12.3°C 52.2°F11.2°C 93% 1.0 mph NW1.6 kmh NW 11.0 mph17.7 kmh 29.90 in1012.5 mb 0.00 in0.0 mm 0.00 in0.0 mm 0.00 in0.0 mm
05:35 AM 54.2°F12.3°C 52.2°F11.2°C 93% Calm Calm 11.0 mph17.7 kmh 29.90 in1012.5 mb 0.00 in0.0 mm 0.00 in0.0 mm 0.00 in0.0 mm
05:30 AM 54.2°F12.3°C 52.2°F11.2°C 93% 3.0 mph NW4.8 kmh NW 11.0 mph17.7 kmh 29.90 in1012.5 mb 0.00 in0.0 mm 0.00 in0.0 mm 0.00 in0.0 mm
05:25 AM 54.2°F12.3°C 51.9°F11.1°C 92% 5.0 mph NW8.0 kmh NW 9.0 mph14.5 kmh 29.90 in1012.5 mb 0.00 in0.0 mm 0.00 in0.0 mm 0.00 in0.0 mm
05:20 AM 54.3°F12.4°C 52.3°F11.3°C 93% Calm Calm 9.0 mph14.5 kmh 29.89 in1012.2 mb 0.00 in0.0 mm 0.00 in0.0 mm 0.00 in0.0 mm
05:15 AM 54.3°F12.4°C 52.3°F11.3°C 93% 1.0 mph WNW1.6 kmh WNW 9.0 mph14.5 kmh 29.90 in1012.5 mb 0.00 in0.0 mm 0.00 in0.0 mm 0.00 in0.0 mm
05:10 AM 54.3°F12.4°C 52.0°F11.1°C 92% 3.0 mph NW4.8 kmh NW 9.0 mph14.5 kmh 29.90 in1012.5 mb 0.00 in0.0 mm 0.00 in0.0 mm 0.00 in0.0 mm
05:05 AM 54.3°F12.4°C 52.3°F11.3°C 93% 5.0 mph WNW8.0 kmh WNW 9.0 mph14.5 kmh 29.89 in1012.2 mb 0.00 in0.0 mm 0.00 in0.0 mm 0.00 in0.0 mm
05:00 AM 54.3°F12.4°C 52.0°F11.1°C 92% 4.0 mph NW6.4 kmh NW 4.0 mph6.4 kmh 29.89 in1012.2 mb 0.00 in0.0 mm 0.00 in0.0 mm 0.00 in0.0 mm
04:55 AM 54.3°F12.4°C 52.3°F11.3°C 93% 2.0 mph WNW3.2 kmh WNW 11.0 mph17.7 kmh 29.90 in1012.5 mb 0.00 in0.0 mm 0.00 in0.0 mm 0.00 in0.0 mm
04:50 AM 54.3°F12.4°C 52.0°F11.1°C 92% 2.0 mph NW3.2 kmh NW 11.0 mph17.7 kmh 29.90 in1012.5 mb 0.00 in0.0 mm 0.00 in0.0 mm 0.00 in0.0 mm
04:45 AM 54.4°F12.4°C 52.1°F11.2°C 92% 4.0 mph NW6.4 kmh NW 11.0 mph17.7 kmh 29.89 in1012.2 mb 0.00 in0.0 mm 0.00 in0.0 mm 0.00 in0.0 mm
04:40 AM 54.4°F12.4°C 52.4°F11.3°C 93% 4.0 mph NW6.4 kmh NW 11.0 mph17.7 kmh 29.90 in1012.5 mb 0.00 in0.0 mm 0.00 in0.0 mm 0.00 in0.0 mm
04:35 AM 54.3°F12.4°C 52.0°F11.1°C 92% 1.0 mph NW1.6 kmh NW 11.0 mph17.7 kmh 29.90 in1012.5 mb 0.00 in0.0 mm 0.00 in0.0 mm 0.00 in0.0 mm
04:30 AM 54.3°F12.4°C 52.0°F11.1°C 92% 5.0 mph NW8.0 kmh NW 11.0 mph17.7 kmh 29.90 in1012.5 mb 0.00 in0.0 mm 0.00 in0.0 mm 0.00 in0.0 mm
04:25 AM 54.3°F12.4°C 52.0°F11.1°C 92% 4.0 mph NW6.4 kmh NW 11.0 mph17.7 kmh 29.90 in1012.5 mb 0.00 in0.0 mm 0.00 in0.0 mm 0.00 in0.0 mm
04:20 AM 54.4°F12.4°C 52.1°F11.2°C 92% 1.0 mph NW1.6 kmh NW 11.0 mph17.7 kmh 29.89 in1012.2 mb 0.00 in0.0 mm 0.00 in0.0 mm 0.00 in0.0 mm
04:15 AM 54.4°F12.4°C 52.1°F11.2°C 92% 8.0 mph NW12.9 kmh NW 11.0 mph17.7 kmh 29.90 in1012.5 mb 0.00 in0.0 mm 0.00 in0.0 mm 0.00 in0.0 mm
04:10 AM 54.4°F12.4°C 52.1°F11.2°C 92% 5.0 mph NW8.0 kmh NW 10.0 mph16.1 kmh 29.90 in1012.5 mb 0.00 in0.0 mm 0.00 in0.0 mm 0.00 in0.0 mm
04:05 AM 54.5°F12.5°C 52.2°F11.2°C 92% 10.0 mph NW16.1 kmh NW 10.0 mph16.1 kmh 29.90 in1012.5 mb 0.00 in0.0 mm 0.00 in0.0 mm 0.00 in0.0 mm
04:00 AM 54.5°F12.5°C 52.2°F11.2°C 92% 6.0 mph NW9.7 kmh NW 6.0 mph9.7 kmh 29.90 in1012.5 mb 0.00 in0.0 mm 0.00 in0.0 mm 0.00 in0.0 mm
03:55 AM 54.6°F12.6°C 52.3°F11.3°C 92% 3.0 mph W4.8 kmh W 10.0 mph16.1 kmh 29.90 in1012.5 mb 0.00 in0.0 mm 0.00 in0.0 mm 0.00 in0.0 mm
03:50 AM 54.5°F12.5°C 52.2°F11.2°C 92% 8.0 mph NW12.9 kmh NW 10.0 mph16.1 kmh 29.90 in1012.5 mb 0.00 in0.0 mm 0.00 in0.0 mm 0.00 in0.0 mm
03:45 AM 54.5°F12.5°C 52.2°F11.2°C 92% 2.0 mph WNW3.2 kmh WNW 10.0 mph16.1 kmh 29.90 in1012.5 mb 0.00 in0.0 mm 0.00 in0.0 mm 0.00 in0.0 mm
03:40 AM 54.5°F12.5°C 51.9°F11.1°C 91% Calm Calm 10.0 mph16.1 kmh 29.89 in1012.2 mb 0.00 in0.0 mm 0.00 in0.0 mm 0.00 in0.0 mm
03:35 AM 54.5°F12.5°C 52.2°F11.2°C 92% 3.0 mph WNW4.8 kmh WNW 10.0 mph16.1 kmh 29.90 in1012.5 mb 0.00 in0.0 mm 0.00 in0.0 mm 0.00 in0.0 mm
03:30 AM 54.5°F12.5°C 52.2°F11.2°C 92% 1.0 mph NW1.6 kmh NW 10.0 mph16.1 kmh 29.90 in1012.5 mb 0.00 in0.0 mm 0.00 in0.0 mm 0.00 in0.0 mm
03:25 AM 54.5°F12.5°C 51.9°F11.1°C 91% 4.0 mph WNW6.4 kmh WNW 10.0 mph16.1 kmh 29.90 in1012.5 mb 0.00 in0.0 mm 0.00 in0.0 mm 0.00 in0.0 mm
03:20 AM 54.5°F12.5°C 51.9°F11.1°C 91% 6.0 mph NW9.7 kmh NW 10.0 mph16.1 kmh 29.90 in1012.5 mb 0.00 in0.0 mm 0.00 in0.0 mm 0.00 in0.0 mm
03:15 AM 54.5°F12.5°C 51.9°F11.1°C 91% 2.0 mph NW3.2 kmh NW 10.0 mph16.1 kmh 29.89 in1012.2 mb 0.00 in0.0 mm 0.00 in0.0 mm 0.00 in0.0 mm
03:10 AM 54.5°F12.5°C 51.9°F11.1°C 91% 5.0 mph NW8.0 kmh NW 10.0 mph16.1 kmh 29.89 in1012.2 mb 0.00 in0.0 mm 0.00 in0.0 mm 0.00 in0.0 mm
03:05 AM 54.4°F12.4°C 51.8°F11.0°C 91% 4.0 mph WNW6.4 kmh WNW 7.0 mph11.3 kmh 29.89 in1012.2 mb 0.00 in0.0 mm 0.00 in0.0 mm 0.00 in0.0 mm
03:00 AM 54.5°F12.5°C 51.9°F11.1°C 91% 3.0 mph W4.8 kmh W 3.0 mph4.8 kmh 29.89 in1012.2 mb 0.00 in0.0 mm 0.00 in0.0 mm 0.00 in0.0 mm
02:55 AM 54.6°F12.6°C 52.0°F11.1°C 91% 4.0 mph NW6.4 kmh NW 13.0 mph20.9 kmh 29.89 in1012.2 mb 0.00 in0.0 mm 0.00 in0.0 mm 0.00 in0.0 mm
02:50 AM 54.7°F12.6°C 52.1°F11.2°C 91% 5.0 mph NW8.0 kmh NW 13.0 mph20.9 kmh 29.89 in1012.2 mb 0.00 in0.0 mm 0.00 in0.0 mm 0.00 in0.0 mm
02:45 AM 54.7°F12.6°C 52.1°F11.2°C 91% 4.0 mph NNW6.4 kmh NNW 13.0 mph20.9 kmh 29.89 in1012.2 mb 0.00 in0.0 mm 0.00 in0.0 mm 0.00 in0.0 mm
02:40 AM 54.8°F12.7°C 52.2°F11.2°C 91% 1.0 mph NW1.6 kmh NW 13.0 mph20.9 kmh 29.89 in1012.2 mb 0.00 in0.0 mm 0.00 in0.0 mm 0.00 in0.0 mm
02:35 AM 54.8°F12.7°C 51.9°F11.1°C 90% 9.0 mph NW14.5 kmh NW 13.0 mph20.9 kmh 29.89 in1012.2 mb 0.00 in0.0 mm 0.00 in0.0 mm 0.00 in0.0 mm
02:30 AM 54.8°F12.7°C 51.9°F11.1°C 90% 5.0 mph NW8.0 kmh NW 13.0 mph20.9 kmh 29.89 in1012.2 mb 0.00 in0.0 mm 0.00 in0.0 mm 0.00 in0.0 mm
02:25 AM 54.8°F12.7°C 51.9°F11.1°C 90% 3.0 mph WNW4.8 kmh WNW 11.0 mph17.7 kmh 29.90 in1012.5 mb 0.00 in0.0 mm 0.00 in0.0 mm 0.00 in0.0 mm
02:20 AM 54.8°F12.7°C 51.9°F11.1°C 90% 2.0 mph NW3.2 kmh NW 11.0 mph17.7 kmh 29.89 in1012.2 mb 0.00 in0.0 mm 0.00 in0.0 mm 0.00 in0.0 mm
02:15 AM 54.9°F12.7°C 52.0°F11.1°C 90% 3.0 mph WNW4.8 kmh WNW 11.0 mph17.7 kmh 29.89 in1012.2 mb 0.00 in0.0 mm 0.00 in0.0 mm 0.00 in0.0 mm
02:10 AM 55.0°F12.8°C 52.1°F11.2°C 90% 9.0 mph NW14.5 kmh NW 11.0 mph17.7 kmh 29.89 in1012.2 mb 0.00 in0.0 mm 0.00 in0.0 mm 0.00 in0.0 mm
02:05 AM 55.1°F12.8°C 52.2°F11.2°C 90% 7.0 mph NW11.3 kmh NW 11.0 mph17.7 kmh 29.90 in1012.5 mb 0.00 in0.0 mm 0.00 in0.0 mm 0.00 in0.0 mm
02:00 AM 55.3°F12.9°C 52.1°F11.2°C 89% 3.0 mph NW4.8 kmh NW 5.0 mph8.0 kmh 29.90 in1012.5 mb 0.00 in0.0 mm 0.00 in0.0 mm 0.00 in0.0 mm
01:55 AM 55.3°F12.9°C 52.1°F11.2°C 89% 1.0 mph NW1.6 kmh NW 10.0 mph16.1 kmh 29.89 in1012.2 mb 0.00 in0.0 mm 0.00 in0.0 mm 0.00 in0.0 mm
01:50 AM 55.3°F12.9°C 52.1°F11.2°C 89% 6.0 mph NW9.7 kmh NW 10.0 mph16.1 kmh 29.89 in1012.2 mb 0.00 in0.0 mm 0.00 in0.0 mm 0.00 in0.0 mm
01:45 AM 55.5°F13.1°C 52.3°F11.3°C 89% 2.0 mph NW3.2 kmh NW 9.0 mph14.5 kmh 29.89 in1012.2 mb 0.00 in0.0 mm 0.00 in0.0 mm 0.00 in0.0 mm
01:40 AM 55.6°F13.1°C 52.4°F11.3°C 89% 3.0 mph NW4.8 kmh NW 9.0 mph14.5 kmh 29.90 in1012.5 mb 0.00 in0.0 mm 0.00 in0.0 mm 0.00 in0.0 mm
01:35 AM 55.7°F13.2°C 52.2°F11.2°C 88% Calm Calm 9.0 mph14.5 kmh 29.90 in1012.5 mb 0.00 in0.0 mm 0.00 in0.0 mm 0.00 in0.0 mm
01:30 AM 55.8°F13.2°C 52.6°F11.4°C 89% 3.0 mph NW4.8 kmh NW 9.0 mph14.5 kmh 29.90 in1012.5 mb 0.00 in0.0 mm 0.00 in0.0 mm 0.00 in0.0 mm
01:25 AM 55.9°F13.3°C 52.7°F11.5°C 89% 6.0 mph WNW9.7 kmh WNW 9.0 mph14.5 kmh 29.89 in1012.2 mb 0.00 in0.0 mm 0.00 in0.0 mm 0.00 in0.0 mm
01:20 AM 55.8°F13.2°C 52.6°F11.4°C 89% 4.0 mph NW6.4 kmh NW 9.0 mph14.5 kmh 29.90 in1012.5 mb 0.00 in0.0 mm 0.00 in0.0 mm 0.00 in0.0 mm
01:15 AM 55.9°F13.3°C 52.7°F11.5°C 89% Calm Calm 9.0 mph14.5 kmh 29.90 in1012.5 mb 0.00 in0.0 mm 0.00 in0.0 mm 0.00 in0.0 mm
01:10 AM 55.9°F13.3°C 52.4°F11.3°C 88% 3.0 mph WNW4.8 kmh WNW 9.0 mph14.5 kmh 29.90 in1012.5 mb 0.00 in0.0 mm 0.00 in0.0 mm 0.00 in0.0 mm
01:05 AM 55.9°F13.3°C 52.4°F11.3°C 88% Calm Calm 7.0 mph11.3 kmh 29.90 in1012.5 mb 0.00 in0.0 mm 0.00 in0.0 mm 0.00 in0.0 mm
01:00 AM 55.9°F13.3°C 52.4°F11.3°C 88% 2.0 mph NW3.2 kmh NW 3.0 mph4.8 kmh 29.90 in1012.5 mb 0.00 in0.0 mm 0.00 in0.0 mm 0.00 in0.0 mm
12:55 AM 56.0°F13.3°C 52.5°F11.4°C 88% 4.0 mph WNW6.4 kmh WNW 12.0 mph19.3 kmh 29.91 in1012.9 mb 0.00 in0.0 mm 0.00 in0.0 mm 0.00 in0.0 mm
12:50 AM 56.0°F13.3°C 52.5°F11.4°C 88% 2.0 mph WNW3.2 kmh WNW 12.0 mph19.3 kmh 29.91 in1012.9 mb 0.00 in0.0 mm 0.00 in0.0 mm 0.00 in0.0 mm
12:45 AM 56.0°F13.3°C 52.5°F11.4°C 88% 5.0 mph NW8.0 kmh NW 11.0 mph17.7 kmh 29.91 in1012.9 mb 0.00 in0.0 mm 0.00 in0.0 mm 0.00 in0.0 mm
12:40 AM 56.0°F13.3°C 52.2°F11.2°C 87% 4.0 mph NW6.4 kmh NW 11.0 mph17.7 kmh 29.91 in1012.9 mb 0.00 in0.0 mm 0.00 in0.0 mm 0.00 in0.0 mm
12:35 AM 56.0°F13.3°C 52.2°F11.2°C 87% 2.0 mph NW3.2 kmh NW 11.0 mph17.7 kmh 29.91 in1012.9 mb 0.00 in0.0 mm 0.00 in0.0 mm 0.00 in0.0 mm
12:30 AM 56.1°F13.4°C 52.3°F11.3°C 87% 2.0 mph W3.2 kmh W 11.0 mph17.7 kmh 29.90 in1012.5 mb 0.00 in0.0 mm 0.00 in0.0 mm 0.00 in0.0 mm
12:25 AM 56.2°F13.4°C 52.4°F11.3°C 87% 6.0 mph NW9.7 kmh NW 8.0 mph12.9 kmh 29.91 in1012.9 mb 0.00 in0.0 mm 0.00 in0.0 mm 0.00 in0.0 mm
12:20 AM 56.2°F13.4°C 52.4°F11.3°C 87% 1.0 mph W1.6 kmh W 8.0 mph12.9 kmh 29.91 in1012.9 mb 0.00 in0.0 mm 0.00 in0.0 mm 0.00 in0.0 mm
12:15 AM 56.2°F13.4°C 52.4°F11.3°C 87% 3.0 mph WSW4.8 kmh WSW 8.0 mph12.9 kmh 29.91 in1012.9 mb 0.00 in0.0 mm 0.00 in0.0 mm 0.00 in0.0 mm
12:10 AM 56.2°F13.4°C 52.4°F11.3°C 87% 5.0 mph NW8.0 kmh NW 8.0 mph12.9 kmh 29.92 in1013.2 mb 0.00 in0.0 mm 0.00 in0.0 mm 0.00 in0.0 mm
12:05 AM 56.3°F13.5°C 52.5°F11.4°C 87% Calm Calm 6.0 mph9.7 kmh 29.92 in1013.2 mb 0.00 in0.0 mm 0.00 in0.0 mm 0.00 in0.0 mm
12:00 AM 56.4°F13.6°C 52.6°F11.4°C 87% 3.0 mph NW4.8 kmh NW 3.0 mph4.8 kmh 29.92 in1013.2 mb 0.00 in0.0 mm 0.00 in0.0 mm 0.00 in0.0 mm